createdAt,value
2022-08-22T00:01:42.845Z,2.67
2022-08-22T00:02:46.875Z,3.13
2022-08-22T00:02:53.143Z,2.55
2022-08-22T00:02:53.911Z,3.08
2022-08-22T00:02:54.637Z,3.63
2022-08-22T00:04:28.119Z,2.00
2022-08-22T00:07:20.358Z,2.50
2022-08-22T00:10:01.804Z,2.40
2022-08-22T00:12:46.387Z,2.88
2022-08-22T00:16:09.072Z,2.50
2022-08-22T00:19:04.982Z,2.50
2022-08-22T00:21:39.986Z,2.97
2022-08-22T00:24:31.788Z,2.30
2022-08-22T00:27:10.866Z,3.38
2022-08-22T00:29:55.505Z,3.05
2022-08-22T00:32:34.449Z,2.55
2022-08-22T00:35:19.389Z,3.97
2022-08-22T00:38:00.033Z,2.88
2022-08-22T00:40:32.860Z,2.70
2022-08-22T00:43:17.879Z,3.20
2022-08-22T00:46:07.182Z,2.60
2022-08-22T00:48:59.348Z,3.00
2022-08-22T00:52:03.210Z,3.05
2022-08-22T00:54:48.510Z,2.25
2022-08-22T00:57:36.334Z,2.88
2022-08-22T01:00:13.220Z,2.78
2022-08-22T01:03:19.083Z,3.05
2022-08-22T01:05:54.756Z,2.78
2022-08-22T01:08:33.919Z,2.50
2022-08-22T01:11:19.053Z,2.92
2022-08-22T01:14:08.460Z,2.20
2022-08-22T01:16:35.265Z,2.95
2022-08-22T01:19:23.615Z,2.88
2022-08-22T01:22:27.867Z,3.00
2022-08-22T01:25:22.352Z,2.78
2022-08-22T01:28:05.322Z,2.47
2022-08-22T01:30:50.861Z,2.85
2022-08-22T01:33:38.705Z,2.65
2022-08-22T01:36:11.105Z,2.78
2022-08-22T01:39:14.986Z,3.08
2022-08-22T01:42:15.227Z,2.63
2022-08-22T01:45:18.747Z,2.75
2022-08-22T01:47:58.749Z,2.75
2022-08-22T01:50:32.728Z,2.95
2022-08-22T01:53:02.016Z,2.90
2022-08-22T01:55:46.185Z,2.80
2022-08-22T01:58:20.402Z,2.92
2022-08-22T02:01:16.876Z,2.70
2022-08-22T02:04:03.988Z,2.70
2022-08-22T02:06:58.754Z,2.80
2022-08-22T02:09:48.868Z,3.08
2022-08-22T02:12:21.777Z,2.95
2022-08-22T02:15:15.766Z,3.33
2022-08-22T02:18:01.142Z,2.60
2022-08-22T02:20:40.798Z,3.67
2022-08-22T02:23:30.711Z,3.22
2022-08-22T02:26:03.081Z,3.10
2022-08-22T02:28:57.086Z,3.05
2022-08-22T02:32:05.823Z,3.45
2022-08-22T02:34:43.652Z,3.22
2022-08-22T02:37:50.604Z,3.03
2022-08-22T02:40:34.261Z,4.05
2022-08-22T02:43:30.980Z,3.28
2022-08-22T02:46:12.307Z,3.55
2022-08-22T02:48:44.885Z,3.80
2022-08-22T02:51:15.330Z,3.30
2022-08-22T02:54:05.064Z,3.38
2022-08-22T02:56:35.958Z,3.17
2022-08-22T02:59:16.822Z,3.75
2022-08-22T03:01:46.202Z,3.63
2022-08-22T03:04:30.706Z,3.88
2022-08-22T03:07:21.384Z,3.85
2022-08-22T03:10:03.868Z,3.22
2022-08-22T03:12:32.271Z,3.35
2022-08-22T03:15:24.398Z,3.78
2022-08-22T03:17:57.340Z,3.95
2022-08-22T03:20:42.676Z,4.82
2022-08-22T03:23:15.222Z,3.90
2022-08-22T03:25:47.494Z,3.90
2022-08-22T03:29:03.993Z,4.25
2022-08-22T03:31:31.790Z,3.08
2022-08-22T03:34:25.137Z,3.13
2022-08-22T03:37:16.125Z,3.88
2022-08-22T03:39:49.434Z,3.85
2022-08-22T03:42:15.983Z,4.00
2022-08-22T03:45:00.816Z,3.88
2022-08-22T03:47:39.752Z,3.35
2022-08-22T03:51:03.485Z,3.83
2022-08-22T03:53:48.849Z,3.13
2022-08-22T03:56:24.335Z,3.55
2022-08-22T03:59:12.624Z,3.33
2022-08-22T04:01:54.747Z,2.85
2022-08-22T04:05:09.729Z,3.40
2022-08-22T04:08:04.507Z,3.20
2022-08-22T04:10:56.408Z,3.67
2022-08-22T04:13:55.186Z,4.15
2022-08-22T04:16:40.280Z,3.30
2022-08-22T04:19:33.604Z,3.60
2022-08-22T04:22:29.960Z,3.35
2022-08-22T04:25:07.131Z,3.58
2022-08-22T04:28:00.637Z,4.03
2022-08-22T04:30:46.297Z,3.53
2022-08-22T04:33:40.125Z,3.90
2022-08-22T04:36:26.699Z,3.75
2022-08-22T04:39:03.988Z,3.72
2022-08-22T04:41:50.464Z,3.80
2022-08-22T04:44:24.515Z,3.80
2022-08-22T04:47:23.734Z,4.00
2022-08-22T04:49:59.397Z,4.10
2022-08-22T04:52:39.552Z,3.63
2022-08-22T04:55:21.839Z,3.72
2022-08-22T04:58:06.450Z,3.67
2022-08-22T05:00:41.038Z,4.25
2022-08-22T05:03:11.435Z,4.30
2022-08-22T05:05:40.907Z,3.92
2022-08-22T05:08:11.762Z,3.75
2022-08-22T05:10:41.930Z,3.92
2022-08-22T05:13:15.750Z,3.83
2022-08-22T05:15:46.223Z,3.83
2022-08-22T05:18:19.624Z,5.20
2022-08-22T05:20:49.274Z,4.32
2022-08-22T05:23:25.527Z,4.03
2022-08-22T05:25:54.850Z,3.83
2022-08-22T05:28:43.111Z,4.75
2022-08-22T05:31:14.524Z,4.28
2022-08-22T05:33:55.330Z,3.85
2022-08-22T05:36:25.107Z,4.32
2022-08-22T05:38:56.152Z,3.90
2022-08-22T05:41:26.140Z,4.15
2022-08-22T05:43:53.939Z,4.28
2022-08-22T05:46:28.585Z,3.75
2022-08-22T05:48:59.124Z,5.35
2022-08-22T05:51:30.532Z,4.22
2022-08-22T05:54:33.796Z,4.40
2022-08-22T05:57:16.586Z,4.30
2022-08-22T05:59:44.071Z,3.83
2022-08-22T06:02:25.118Z,4.47
2022-08-22T06:05:00.987Z,3.88
2022-08-22T06:07:33.370Z,4.10
2022-08-22T06:10:06.056Z,3.88
2022-08-22T06:12:43.403Z,4.18
2022-08-22T06:15:20.974Z,4.13
2022-08-22T06:17:50.965Z,4.22
2022-08-22T06:20:22.440Z,4.30
2022-08-22T06:22:53.789Z,4.35
2022-08-22T06:25:30.033Z,4.55
2022-08-22T06:27:57.723Z,4.20
2022-08-22T06:30:26.531Z,3.83
2022-08-22T06:33:00.228Z,3.65
2022-08-22T06:35:52.601Z,4.10
2022-08-22T06:38:20.471Z,3.58
2022-08-22T06:40:48.418Z,3.55
2022-08-22T06:43:15.803Z,3.50
2022-08-22T06:45:42.722Z,3.55
2022-08-22T06:48:09.555Z,3.65
2022-08-22T06:50:39.305Z,3.80
2022-08-22T06:53:45.882Z,3.88
2022-08-22T06:56:25.159Z,3.25
2022-08-22T06:58:54.963Z,3.42
2022-08-22T07:01:24.693Z,3.47
2022-08-22T07:03:53.932Z,3.25
2022-08-22T07:06:42.609Z,3.72
2022-08-22T07:09:20.719Z,3.40
2022-08-22T07:11:47.773Z,3.28
2022-08-22T07:14:16.755Z,3.90
2022-08-22T07:17:10.713Z,3.50
2022-08-22T07:19:40.115Z,3.65
2022-08-22T07:22:13.718Z,3.20
2022-08-22T07:24:48.053Z,3.13
2022-08-22T07:27:19.894Z,2.92
2022-08-22T07:29:58.094Z,3.42
2022-08-22T07:32:46.888Z,2.95
2022-08-22T07:35:17.388Z,3.22
2022-08-22T07:37:54.362Z,2.97
2022-08-22T07:40:39.945Z,2.97
2022-08-22T07:43:21.429Z,2.72
2022-08-22T07:45:54.217Z,2.80
2022-08-22T07:48:28.052Z,3.13
2022-08-22T07:51:05.434Z,1.95
2022-08-22T07:53:40.104Z,1.98
2022-08-22T07:56:21.625Z,2.70
2022-08-22T07:59:07.977Z,2.47
2022-08-22T08:01:36.914Z,2.10
2022-08-22T08:04:08.467Z,1.83
2022-08-22T08:06:35.516Z,2.28
2022-08-22T08:09:02.708Z,2.53
2022-08-22T08:11:34.585Z,2.90
2022-08-22T08:14:05.394Z,2.67
2022-08-22T08:16:40.663Z,2.75
2022-08-22T08:19:08.390Z,2.22
2022-08-22T08:21:41.456Z,1.88
2022-08-22T08:24:13.523Z,2.60
2022-08-22T08:27:04.087Z,2.42
2022-08-22T08:29:31.657Z,1.48
2022-08-22T08:31:59.879Z,1.67
2022-08-22T08:34:27.294Z,1.60
2022-08-22T08:36:59.546Z,1.85
2022-08-22T08:39:35.548Z,1.48
2022-08-22T08:42:21.067Z,1.45
2022-08-22T08:44:57.119Z,1.77
2022-08-22T08:47:42.868Z,1.27
2022-08-22T08:50:29.281Z,1.75
2022-08-22T08:53:07.892Z,1.40
2022-08-22T08:55:37.506Z,1.30
2022-08-22T08:58:33.798Z,1.45
2022-08-22T09:01:07.678Z,1.38
2022-08-22T09:03:43.901Z,1.90
2022-08-22T09:06:22.868Z,1.60
2022-08-22T09:09:00.129Z,1.40
2022-08-22T09:11:57.910Z,1.10
2022-08-22T09:14:33.440Z,1.30
2022-08-22T09:17:18.879Z,1.15
2022-08-22T09:20:17.703Z,1.52
2022-08-22T09:23:17.595Z,1.50
2022-08-22T09:26:05.865Z,1.00
2022-08-22T09:29:29.047Z,1.27
2022-08-22T09:32:19.555Z,1.35
2022-08-22T09:35:17.192Z,1.60
2022-08-22T09:38:03.289Z,0.82
2022-08-22T09:40:46.508Z,1.48
2022-08-22T09:43:21.131Z,1.58
2022-08-22T09:46:02.383Z,1.77
2022-08-22T09:48:50.187Z,1.17
2022-08-22T09:51:38.817Z,1.60
2022-08-22T09:54:13.931Z,0.98
2022-08-22T09:57:13.926Z,1.23
2022-08-22T10:00:05.434Z,1.55
2022-08-22T10:02:37.657Z,1.27
2022-08-22T10:05:41.004Z,1.75
2022-08-22T10:08:19.944Z,1.40
2022-08-22T10:11:19.002Z,1.50
2022-08-22T10:13:57.396Z,1.88
2022-08-22T10:16:52.178Z,1.42
2022-08-22T10:19:42.578Z,1.40
2022-08-22T10:22:21.296Z,1.30
2022-08-22T10:25:15.608Z,1.08
2022-08-22T10:28:10.643Z,1.38
2022-08-22T10:30:43.568Z,1.40
2022-08-22T10:33:12.156Z,1.00
2022-08-22T10:36:16.381Z,1.42
2022-08-22T10:38:47.290Z,0.90
2022-08-22T10:41:22.801Z,1.63
2022-08-22T10:44:04.240Z,1.60
2022-08-22T10:47:03.018Z,1.45
2022-08-22T10:49:55.511Z,0.90
2022-08-22T10:52:31.530Z,1.50
2022-08-22T10:55:01.694Z,1.27
2022-08-22T10:57:47.382Z,1.63
2022-08-22T11:00:50.039Z,1.40
2022-08-22T11:03:26.287Z,1.70
2022-08-22T11:05:58.666Z,0.90
2022-08-22T11:08:55.716Z,0.93
2022-08-22T11:11:54.218Z,1.15
2022-08-22T11:14:32.924Z,0.90
2022-08-22T11:17:12.733Z,1.10
2022-08-22T11:20:21.335Z,1.27
2022-08-22T11:23:06.485Z,1.10
2022-08-22T11:25:57.497Z,1.92
2022-08-22T11:28:33.501Z,0.90
2022-08-22T11:31:21.580Z,1.25
2022-08-22T11:33:51.996Z,1.13
2022-08-22T11:36:27.249Z,1.27
2022-08-22T11:39:23.940Z,1.55
2022-08-22T11:42:13.893Z,0.90
2022-08-22T11:44:55.562Z,0.90
2022-08-22T11:47:27.186Z,1.40
2022-08-22T11:49:59.663Z,1.00
2022-08-22T11:52:51.870Z,1.00
2022-08-22T11:55:23.467Z,1.10
2022-08-22T11:57:55.518Z,1.20
2022-08-22T12:00:43.480Z,1.40
2022-08-22T12:03:35.554Z,1.67
2022-08-22T12:06:22.324Z,1.48
2022-08-22T12:09:12.101Z,1.30
2022-08-22T12:11:44.265Z,1.13
2022-08-22T12:14:27.123Z,1.65
2022-08-22T12:17:18.956Z,1.10
2022-08-22T12:20:34.685Z,1.20
2022-08-22T12:23:15.171Z,1.00
2022-08-22T12:26:01.486Z,1.30
2022-08-22T12:28:34.285Z,1.20
2022-08-22T12:31:00.915Z,1.10
2022-08-22T12:33:51.786Z,1.20
2022-08-22T12:36:40.413Z,1.08
2022-08-22T12:39:34.928Z,1.50
2022-08-22T12:42:04.471Z,0.90
2022-08-22T12:45:02.096Z,1.20
2022-08-22T12:48:12.167Z,1.35
2022-08-22T12:50:48.712Z,1.38
2022-08-22T12:53:47.737Z,1.40
2022-08-22T12:56:39.469Z,0.93
2022-08-22T12:59:36.485Z,1.08
2022-08-22T13:02:19.019Z,1.02
2022-08-22T13:04:52.495Z,1.10
2022-08-22T13:07:23.239Z,1.27
2022-08-22T13:09:59.511Z,1.15
2022-08-22T13:12:38.383Z,1.40
2022-08-22T13:15:13.474Z,1.52
2022-08-22T13:17:43.985Z,1.70
2022-08-22T13:20:22.412Z,1.20
2022-08-22T13:22:54.484Z,1.10
2022-08-22T13:25:25.815Z,1.10
2022-08-22T13:28:04.309Z,1.25
2022-08-22T13:30:37.544Z,1.52
2022-08-22T13:33:11.018Z,1.10
2022-08-22T13:35:52.430Z,1.05
2022-08-22T13:38:48.221Z,1.13
2022-08-22T13:41:22.596Z,1.20
2022-08-22T13:44:11.734Z,1.08
2022-08-22T13:46:52.758Z,1.15
2022-08-22T13:49:33.367Z,1.63
2022-08-22T13:52:28.885Z,1.50
2022-08-22T13:55:01.367Z,1.10
2022-08-22T13:57:34.858Z,1.25
2022-08-22T14:00:28.863Z,1.50
2022-08-22T14:03:07.956Z,1.33
2022-08-22T14:05:51.282Z,1.38
2022-08-22T14:08:25.859Z,1.00
2022-08-22T14:11:06.753Z,1.40
2022-08-22T14:13:43.068Z,1.35
2022-08-22T14:16:45.732Z,1.10
2022-08-22T14:19:16.060Z,1.05
2022-08-22T14:21:43.803Z,1.35
2022-08-22T14:24:28.487Z,1.20
2022-08-22T14:27:06.876Z,1.00
2022-08-22T14:29:50.949Z,1.38
2022-08-22T14:32:23.357Z,0.90
2022-08-22T14:35:35.307Z,0.93
2022-08-22T14:38:30.512Z,1.30
2022-08-22T14:41:03.350Z,1.38
2022-08-22T14:43:30.021Z,1.38
2022-08-22T14:46:01.962Z,1.08
2022-08-22T14:48:43.696Z,1.35
2022-08-22T14:51:18.861Z,1.17
2022-08-22T14:53:48.439Z,1.38
2022-08-22T14:56:24.368Z,1.42
2022-08-22T14:58:58.210Z,1.50
2022-08-22T15:01:29.801Z,1.20
2022-08-22T15:04:09.406Z,1.27
2022-08-22T15:06:48.138Z,1.38
2022-08-22T15:09:31.267Z,1.70
2022-08-22T15:11:58.239Z,1.10
2022-08-22T15:14:39.032Z,1.10
2022-08-22T15:17:09.641Z,1.42
2022-08-22T15:19:41.057Z,1.63
2022-08-22T15:22:25.810Z,1.00
2022-08-22T15:25:20.576Z,1.35
2022-08-22T15:27:53.233Z,1.40
2022-08-22T15:30:36.418Z,1.42
2022-08-22T15:33:12.061Z,1.40
2022-08-22T15:35:39.597Z,1.20
2022-08-22T15:38:29.345Z,1.33
2022-08-22T15:40:57.436Z,1.10
2022-08-22T15:43:33.739Z,1.25
2022-08-22T15:46:23.399Z,1.35
2022-08-22T15:49:04.308Z,1.27
2022-08-22T15:51:43.053Z,1.10
2022-08-22T15:54:24.407Z,1.33
2022-08-22T15:57:10.265Z,1.20
2022-08-22T15:59:54.091Z,1.38
2022-08-22T16:02:40.046Z,1.42
2022-08-22T16:05:09.650Z,1.38
2022-08-22T16:07:36.079Z,1.33
2022-08-22T16:10:27.229Z,1.30
2022-08-22T16:13:17.008Z,1.30
2022-08-22T16:15:55.717Z,1.10
2022-08-22T16:18:36.954Z,1.83
2022-08-22T16:21:05.748Z,1.23
2022-08-22T16:23:53.850Z,1.23
2022-08-22T16:26:24.801Z,1.20
2022-08-22T16:28:58.818Z,1.33
2022-08-22T16:31:44.005Z,1.30
2022-08-22T16:34:16.685Z,1.30
2022-08-22T16:36:55.161Z,1.25
2022-08-22T16:39:21.731Z,1.20
2022-08-22T16:42:12.814Z,1.38
2022-08-22T16:44:49.159Z,1.42
2022-08-22T16:47:23.043Z,1.15
2022-08-22T16:49:49.554Z,1.60
2022-08-22T16:52:24.896Z,1.60
2022-08-22T16:55:05.228Z,1.40
2022-08-22T16:58:55.758Z,1.17
2022-08-22T17:01:44.252Z,1.30
2022-08-22T17:04:32.290Z,1.40
2022-08-22T17:07:07.640Z,1.20
2022-08-22T17:09:43.621Z,1.45
2022-08-22T17:12:27.463Z,1.17
2022-08-22T17:15:07.323Z,1.00
2022-08-22T17:18:11.909Z,1.33
2022-08-22T17:20:59.156Z,1.30
2022-08-22T17:23:53.041Z,1.38
2022-08-22T17:26:29.368Z,1.38
2022-08-22T17:29:17.546Z,1.45
2022-08-22T17:32:15.107Z,1.38
2022-08-22T17:35:14.142Z,1.40
2022-08-22T17:37:59.524Z,1.80
2022-08-22T17:41:02.987Z,1.33
2022-08-22T17:43:33.499Z,1.45
2022-08-22T17:46:33.300Z,1.50
2022-08-22T17:49:03.703Z,1.38
2022-08-22T17:51:34.744Z,1.30
2022-08-22T17:54:06.523Z,1.60
2022-08-22T17:56:42.067Z,1.48
2022-08-22T17:59:22.446Z,1.40
2022-08-22T18:01:51.079Z,1.52
2022-08-22T18:04:31.711Z,1.27
2022-08-22T18:07:17.416Z,1.60
2022-08-22T18:09:52.286Z,1.50
2022-08-22T18:12:35.130Z,1.60
2022-08-22T18:15:26.124Z,1.27
2022-08-22T18:18:03.570Z,1.27
2022-08-22T18:20:35.202Z,2.10
2022-08-22T18:23:21.786Z,1.65
2022-08-22T18:26:06.196Z,1.55
2022-08-22T18:28:40.989Z,1.73
2022-08-22T18:31:29.876Z,1.88
2022-08-22T18:34:01.177Z,1.50
2022-08-22T18:36:35.545Z,1.60
2022-08-22T18:39:18.657Z,1.55
2022-08-22T18:42:09.561Z,1.77
2022-08-22T18:44:38.406Z,1.27
2022-08-22T18:47:23.180Z,1.73
2022-08-22T18:49:55.679Z,2.08
2022-08-22T18:52:25.313Z,1.52
2022-08-22T18:55:15.157Z,1.65
2022-08-22T18:58:00.701Z,1.52
2022-08-22T19:01:11.978Z,1.80
2022-08-22T19:04:11.989Z,1.58
2022-08-22T19:07:19.992Z,1.55
2022-08-22T19:10:05.014Z,1.30
2022-08-22T19:13:13.758Z,1.77
2022-08-22T19:15:58.467Z,1.40
2022-08-22T19:18:44.744Z,1.38
2022-08-22T19:21:42.492Z,1.20
2022-08-22T19:24:13.317Z,1.55
2022-08-22T19:26:42.990Z,1.45
2022-08-22T19:29:16.116Z,1.80
2022-08-22T19:31:49.276Z,1.60
2022-08-22T19:34:35.497Z,1.60
2022-08-22T19:37:32.860Z,1.90
2022-08-22T19:40:10.368Z,1.60
2022-08-22T19:42:39.615Z,1.58
2022-08-22T19:45:21.071Z,1.50
2022-08-22T19:48:14.669Z,1.08
2022-08-22T19:50:42.257Z,1.27
2022-08-22T19:53:27.161Z,1.98
2022-08-22T19:56:04.045Z,1.33
2022-08-22T19:58:52.352Z,2.45
2022-08-22T20:01:43.079Z,1.40
2022-08-22T20:04:21.135Z,1.08
2022-08-22T20:07:14.650Z,1.70
2022-08-22T20:09:47.545Z,1.52
2022-08-22T20:12:28.998Z,1.58
2022-08-22T20:14:55.824Z,1.95
2022-08-22T20:17:25.480Z,1.40
2022-08-22T20:22:52.695Z,1.45
2022-08-22T20:25:42.979Z,1.20
2022-08-22T20:28:38.122Z,1.17
2022-08-22T20:31:10.740Z,1.48
2022-08-22T20:33:40.542Z,1.00
2022-08-22T20:36:27.293Z,1.08
2022-08-22T20:39:09.833Z,1.27
2022-08-22T20:41:38.139Z,1.20
2022-08-22T20:44:04.832Z,1.10
2022-08-22T20:46:53.411Z,1.30
2022-08-22T20:49:23.549Z,1.10
2022-08-22T20:51:56.438Z,0.93
2022-08-22T20:54:25.829Z,1.20
2022-08-22T20:57:23.918Z,1.63
2022-08-22T20:59:54.947Z,1.00
2022-08-22T21:02:26.161Z,1.10
2022-08-22T21:05:01.985Z,1.38
2022-08-22T21:07:49.853Z,1.38
2022-08-22T21:10:47.272Z,1.10
2022-08-22T21:13:22.042Z,1.33
2022-08-22T21:15:53.049Z,1.50
2022-08-22T21:18:25.587Z,1.48
2022-08-22T21:20:52.253Z,1.63
2022-08-22T21:23:19.784Z,1.20
2022-08-22T21:25:56.653Z,2.03
2022-08-22T21:28:33.441Z,1.80
2022-08-22T21:31:08.272Z,1.70
2022-08-22T21:33:34.923Z,1.60
2022-08-22T21:36:01.694Z,1.70
2022-08-22T21:38:28.494Z,1.67
2022-08-22T21:41:02.162Z,1.58
2022-08-22T21:43:32.134Z,1.90
2022-08-22T21:45:58.731Z,1.88
2022-08-22T21:48:38.417Z,1.75
2022-08-22T21:51:24.206Z,1.90
2022-08-22T21:53:58.233Z,2.08
2022-08-22T21:56:37.625Z,2.00
2022-08-22T21:59:47.852Z,1.80
2022-08-22T22:02:28.290Z,1.98
2022-08-22T22:04:55.190Z,1.95
2022-08-22T22:07:24.182Z,2.10
2022-08-22T22:09:54.596Z,1.80
2022-08-22T22:12:21.610Z,1.85
2022-08-22T22:14:51.794Z,2.15
2022-08-22T22:17:19.272Z,2.00
2022-08-22T22:19:46.420Z,1.77
2022-08-22T22:22:13.835Z,2.22
2022-08-22T22:24:40.380Z,1.92
2022-08-22T22:27:07.510Z,1.90
2022-08-22T22:29:34.354Z,1.95
2022-08-22T22:32:00.905Z,1.88
2022-08-22T22:34:27.565Z,1.65
2022-08-22T22:36:54.323Z,1.90
2022-08-22T22:39:20.997Z,2.08
2022-08-22T22:41:49.138Z,2.13
2022-08-22T22:44:15.820Z,2.20
2022-08-22T22:46:42.321Z,1.77
2022-08-22T22:49:08.919Z,1.80
2022-08-22T22:51:35.482Z,2.13
2022-08-22T22:54:02.402Z,2.55
2022-08-22T22:56:29.106Z,2.17
2022-08-22T22:59:00.835Z,1.85
2022-08-22T23:01:59.412Z,2.10
2022-08-22T23:04:26.024Z,1.85
2022-08-22T23:06:52.584Z,2.00
2022-08-22T23:09:19.220Z,1.90
2022-08-22T23:11:45.755Z,2.38
2022-08-22T23:14:12.299Z,1.75
2022-08-22T23:16:40.363Z,2.10
2022-08-22T23:19:13.639Z,1.60
2022-08-22T23:21:41.642Z,2.17
2022-08-22T23:24:08.673Z,1.92
2022-08-22T23:26:37.329Z,1.65
2022-08-22T23:29:04.111Z,2.00
2022-08-22T23:31:34.666Z,2.22
2022-08-22T23:34:06.148Z,2.30
2022-08-22T23:36:32.867Z,2.05
2022-08-22T23:38:59.572Z,2.35
2022-08-22T23:41:26.715Z,1.92
2022-08-22T23:43:54.546Z,2.20
2022-08-22T23:46:22.964Z,2.67
2022-08-22T23:48:50.046Z,2.10
2022-08-22T23:51:22.324Z,2.13
2022-08-22T23:53:50.827Z,2.33
2022-08-22T23:56:32.517Z,2.22
2022-08-22T23:59:00.704Z,3.08
